Time;durP1;ratioP1;P1;durP2;ratioP2;P2;SDS_P1;SDS_P2;PMS_P1;PMS_P2;Temp;Humidity;BMP_temperature;BMP_pressure;BME280_temperature;BME280_humidity;BME280_pressure;Samples;Min_cycle;Max_cycle;Signal;HPM_P1;HPM_P2
2024/03/09 00:00:42;;;;;;;48.67;20.67;;;6.60;99.90;;;;;;4892137;29;20052;-83
2024/03/09 00:03:15;;;;;;;52.92;20.48;;;6.60;99.90;;;;;;4898342;29;20457;-84
2024/03/09 00:05:48;;;;;;;56.65;21.05;;;6.70;99.90;;;;;;4896644;29;20462;-83
2024/03/09 00:08:19;;;;;;;47.95;18.98;;;6.70;99.90;;;;;;4909441;29;20389;-84
2024/03/09 00:10:49;;;;;;;45.35;19.25;;;6.70;99.90;;;;;;4911298;29;20049;-84
2024/03/09 00:13:20;;;;;;;55.70;19.95;;;6.70;99.90;;;;;;4888083;29;20136;-84
2024/03/09 00:15:48;;;;;;;56.85;20.35;;;6.70;99.90;;;;;;4896753;29;20080;-84
2024/03/09 00:18:22;;;;;;;47.88;20.15;;;6.70;99.90;;;;;;4893780;29;20506;-83
2024/03/09 00:21:10;;;;;;;51.50;19.63;;;6.60;99.90;;;;;;4910719;29;20045;-83
2024/03/09 00:23:42;;;;;;;48.45;19.48;;;6.70;99.90;;;;;;4897241;29;20143;-83
2024/03/09 00:26:13;;;;;;;53.47;18.73;;;6.70;99.90;;;;;;4886754;29;20064;-84
2024/03/09 00:28:42;;;;;;;52.75;20.15;;;6.70;99.90;;;;;;4890445;29;20075;-84
2024/03/09 00:31:19;;;;;;;50.63;19.77;;;6.60;99.90;;;;;;4890553;29;20068;-83
2024/03/09 00:33:53;;;;;;;51.72;18.92;;;6.60;99.90;;;;;;4897074;29;20072;-84
2024/03/09 00:36:28;;;;;;;50.88;18.58;;;6.70;99.90;;;;;;4912664;29;20053;-84
2024/03/09 00:38:57;;;;;;;51.08;19.48;;;6.70;99.90;;;;;;4894025;29;20405;-83
2024/03/09 00:41:29;;;;;;;52.72;19.65;;;6.70;99.90;;;;;;4908237;29;20063;-85
2024/03/09 00:43:58;;;;;;;48.95;18.90;;;6.70;99.90;;;;;;4933160;29;20576;-83
2024/03/09 00:46:28;;;;;;;56.38;19.80;;;6.70;99.90;;;;;;4929784;29;20056;-84
2024/03/09 00:48:57;;;;;;;47.13;18.55;;;6.70;99.90;;;;;;4887158;29;20048;-84
2024/03/09 00:51:33;;;;;;;49.17;18.95;;;6.70;99.90;;;;;;4892077;29;20076;-84
2024/03/09 00:54:03;;;;;;;52.95;19.40;;;6.70;99.90;;;;;;4881740;29;20048;-82
2024/03/09 00:56:33;;;;;;;48.58;18.02;;;6.60;99.90;;;;;;4882590;29;20045;-80
2024/03/09 00:59:03;;;;;;;43.95;18.55;;;6.70;99.90;;;;;;4872771;29;20602;-81
2024/03/09 01:01:35;;;;;;;;;;;6.70;99.90;;;;;;4831372;29;20524;-81
2024/03/09 01:04:06;;;;;;;49.83;18.67;;;6.60;99.90;;;;;;4880973;29;19927;-81
2024/03/09 01:06:37;;;;;;;52.00;20.90;;;6.60;99.90;;;;;;4883851;29;20560;-80
2024/03/09 01:09:10;;;;;;;50.90;20.95;;;6.60;99.90;;;;;;4888330;29;20424;-81
2024/03/09 01:11:40;;;;;;;52.17;21.38;;;6.60;99.90;;;;;;4877966;29;20057;-81
2024/03/09 01:14:10;;;;;;;55.42;20.48;;;6.60;99.90;;;;;;4894353;29;20060;-81
2024/03/09 01:16:40;;;;;;;49.13;20.30;;;6.60;99.90;;;;;;4861355;29;20458;-81
2024/03/09 01:19:10;;;;;;;47.45;19.83;;;6.60;99.90;;;;;;4860086;29;20049;-81
2024/03/09 01:21:41;;;;;;;51.83;19.83;;;6.60;99.90;;;;;;4861502;29;20633;-82
2024/03/09 01:24:12;;;;;;;52.13;20.35;;;6.60;99.90;;;;;;4876771;29;20053;-80
2024/03/09 01:26:42;;;;;;;54.50;21.45;;;6.60;99.90;;;;;;4874635;29;20143;-81
2024/03/09 01:29:11;;;;;;;51.92;20.75;;;6.60;99.90;;;;;;4896536;29;20093;-81
2024/03/09 01:31:43;;;;;;;46.90;19.15;;;6.50;99.90;;;;;;4906252;29;20127;-81
2024/03/09 01:34:15;;;;;;;45.13;19.27;;;6.50;99.90;;;;;;4902080;29;20048;-80
2024/03/09 01:36:48;;;;;;;48.97;20.88;;;6.50;99.90;;;;;;4912602;29;20093;-80
2024/03/09 01:39:26;;;;;;;44.80;18.88;;;6.40;99.90;;;;;;4895256;29;20049;-80
2024/03/09 01:41:55;;;;;;;45.50;19.38;;;6.40;99.90;;;;;;4888303;29;20060;-80
2024/03/09 01:44:23;;;;;;;52.38;20.88;;;6.50;99.90;;;;;;4893556;29;20053;-80
2024/03/09 01:46:56;;;;;;;49.35;20.40;;;6.50;99.90;;;;;;4891159;29;20493;-80
2024/03/09 01:49:25;;;;;;;52.78;20.88;;;6.50;99.90;;;;;;4906648;29;20076;-78
2024/03/09 01:51:58;;;;;;;42.72;18.38;;;6.50;99.90;;;;;;4897841;29;20045;-81
2024/03/09 01:54:28;;;;;;;47.67;17.90;;;6.40;99.90;;;;;;4897979;29;20678;-80
2024/03/09 01:56:58;;;;;;;49.47;19.02;;;6.40;99.90;;;;;;4888137;29;20147;-80
2024/03/09 01:59:30;;;;;;;48.03;17.73;;;6.40;99.90;;;;;;4892535;29;20052;-82
2024/03/09 02:02:01;;;;;;;45.28;19.13;;;6.40;99.90;;;;;;4881280;29;20394;-81
2024/03/09 02:04:31;;;;;;;43.57;17.93;;;6.40;99.90;;;;;;4879870;29;20527;-78
2024/03/09 02:07:04;;;;;;;43.53;16.90;;;6.40;99.90;;;;;;4891920;29;20045;-79
2024/03/09 02:09:34;;;;;;;46.72;18.40;;;6.40;99.90;;;;;;4892205;29;20053;-82
2024/03/09 02:12:06;;;;;;;43.63;16.50;;;6.40;99.90;;;;;;4895579;29;20052;-80
2024/03/09 02:14:36;;;;;;;41.50;16.45;;;6.40;99.90;;;;;;4895653;29;20151;-81
2024/03/09 02:17:08;;;;;;;46.38;17.63;;;6.40;99.90;;;;;;4874993;29;20108;-81
2024/03/09 02:19:39;;;;;;;41.80;16.95;;;6.40;99.90;;;;;;4866714;29;20053;-80
2024/03/09 02:22:12;;;;;;;42.30;17.17;;;6.30;99.90;;;;;;4870011;29;20135;-81
2024/03/09 02:24:46;;;;;;;45.13;16.35;;;6.30;99.90;;;;;;4874632;29;20493;-81
2024/03/09 02:27:26;;;;;;;39.67;17.42;;;6.30;99.90;;;;;;4857958;29;20045;-82
2024/03/09 02:29:57;;;;;;;45.10;18.42;;;6.30;99.90;;;;;;4885320;29;20096;-81
2024/03/09 02:32:30;;;;;;;47.22;18.25;;;6.30;99.90;;;;;;4880009;29;20072;-81
2024/03/09 02:34:59;;;;;;;;;;;6.30;99.90;;;;;;4880788;29;20117;-83
2024/03/09 02:37:28;;;;;;;44.67;18.02;;;6.40;99.90;;;;;;4871927;29;19994;-81
2024/03/09 02:45:26;;;;;;;40.25;17.52;;;6.40;99.90;;;;;;4868548;29;20049;-82
2024/03/09 02:47:56;;;;;;;41.67;18.33;;;6.40;99.90;;;;;;4864203;29;20052;-81
2024/03/09 02:50:27;;;;;;;36.72;15.18;;;6.30;99.90;;;;;;4846185;29;20156;-80
2024/03/09 02:52:57;;;;;;;41.47;16.98;;;6.30;99.90;;;;;;4880216;29;20552;-80
2024/03/09 02:55:29;;;;;;;;;;;6.30;99.90;;;;;;4864782;29;20417;-79
2024/03/09 02:58:00;;;;;;;38.70;16.65;;;6.30;99.90;;;;;;4849740;29;20431;-82
2024/03/09 03:00:35;;;;;;;39.17;15.67;;;6.30;99.90;;;;;;4842495;29;20054;-82
2024/03/09 03:06:02;;;;;;;38.92;18.17;;;6.20;99.90;;;;;;4793572;29;20054;-81
2024/03/09 03:08:33;;;;;;;42.75;15.80;;;6.20;99.90;;;;;;4809213;29;20074;-79
2024/03/09 03:11:02;;;;;;;40.00;18.30;;;6.20;99.90;;;;;;4834298;29;20077;-81
2024/03/09 03:13:33;;;;;;;35.78;15.90;;;6.20;99.90;;;;;;4842411;29;20506;-81
2024/03/09 03:16:02;;;;;;;38.33;17.30;;;6.20;99.90;;;;;;4831741;29;20068;-81
2024/03/09 03:18:33;;;;;;;37.83;16.83;;;6.10;99.90;;;;;;4858289;29;20060;-82
2024/03/09 03:21:02;;;;;;;40.38;17.73;;;6.10;99.90;;;;;;4861029;29;20438;-81
2024/03/09 03:23:31;;;;;;;41.90;16.85;;;6.10;99.90;;;;;;4860654;29;20456;-80
2024/03/09 03:26:00;;;;;;;43.45;17.48;;;6.20;99.90;;;;;;4860506;29;20159;-81
2024/03/09 03:28:29;;;;;;;44.15;18.08;;;6.10;99.90;;;;;;4860920;29;20422;-80
2024/03/09 03:31:01;;;;;;;38.95;17.02;;;5.10;99.90;;;;;;4845103;29;20049;-80
2024/03/09 03:33:32;;;;;;;38.65;16.88;;;6.00;99.90;;;;;;4860182;29;20049;-80
2024/03/09 03:36:05;;;;;;;43.90;17.73;;;6.00;99.90;;;;;;4841744;29;20057;-80
2024/03/09 03:38:35;;;;;;;45.10;16.67;;;5.90;99.90;;;;;;4861298;29;20100;-80
2024/03/09 03:41:07;;;;;;;45.17;17.52;;;5.90;99.90;;;;;;4896199;29;20049;-79
2024/03/09 03:43:48;;;;;;;36.90;15.23;;;5.90;99.90;;;;;;4895458;29;20088;-79
2024/03/09 03:46:21;;;;;;;41.60;15.27;;;5.80;99.90;;;;;;4896508;29;20421;-79
2024/03/09 03:48:51;;;;;;;40.33;16.90;;;5.80;99.90;;;;;;4835538;29;20409;-80
2024/03/09 03:51:24;;;;;;;41.47;17.52;;;5.90;99.90;;;;;;4903212;29;20069;-78
2024/03/09 03:53:54;;;;;;;48.40;17.15;;;5.90;99.90;;;;;;4865014;29;20107;-79
2024/03/09 03:56:24;;;;;;;44.22;17.15;;;5.90;99.90;;;;;;4895650;29;20055;-77
2024/03/09 03:58:57;;;;;;;43.08;17.40;;;5.90;99.90;;;;;;4903225;29;20053;-78
2024/03/09 04:01:29;;;;;;;43.15;17.67;;;5.90;99.90;;;;;;4901013;29;20128;-78
2024/03/09 04:03:59;;;;;;;42.95;16.45;;;5.90;99.90;;;;;;4904666;29;20048;-78
2024/03/09 04:06:44;;;;;;;38.08;16.15;;;5.80;99.90;;;;;;4922782;29;20055;-79
2024/03/09 04:09:16;;;;;;;43.13;17.17;;;5.70;99.90;;;;;;4895863;29;20048;-78
2024/03/09 04:11:49;;;;;;;41.10;15.75;;;6.60;99.90;;;;;;4918015;29;20461;-78
2024/03/09 04:14:18;;;;;;;47.88;19.13;;;5.80;99.90;;;;;;4893827;29;20057;-79
2024/03/09 04:16:52;;;;;;;43.55;16.35;;;5.70;99.90;;;;;;4898320;29;20556;-78
2024/03/09 04:19:21;;;;;;;39.58;16.88;;;5.70;99.90;;;;;;4896872;29;20081;-76
2024/03/09 04:21:50;;;;;;;41.88;16.70;;;5.60;99.90;;;;;;4899847;29;20049;-78
2024/03/09 04:28:12;;;;;;;40.78;15.02;;;5.60;99.90;;;;;;4913366;29;20045;-76
2024/03/09 04:30:48;;;;;;;37.13;15.60;;;5.60;99.90;;;;;;4897353;29;20048;-76
2024/03/09 04:33:19;;;;;;;43.13;16.38;;;5.60;99.90;;;;;;4904321;29;20071;-77
2024/03/09 04:35:49;;;;;;;37.83;16.15;;;5.70;99.90;;;;;;4913319;29;20052;-77
2024/03/09 04:38:18;;;;;;;39.35;14.98;;;5.60;99.90;;;;;;4884730;29;20497;-76
2024/03/09 04:40:49;;;;;;;43.25;16.85;;;5.50;99.90;;;;;;4895406;29;20115;-76
2024/03/09 04:43:19;;;;;;;42.47;16.23;;;5.60;99.90;;;;;;4891897;29;20045;-76
2024/03/09 04:46:05;;;;;;;45.50;18.10;;;5.50;99.90;;;;;;4907795;29;20049;-76
2024/03/09 04:48:36;;;;;;;38.35;16.00;;;5.50;99.90;;;;;;4902171;29;20441;-76
2024/03/09 04:51:05;;;;;;;39.50;15.68;;;5.50;99.90;;;;;;4917473;29;20136;-77
2024/03/09 04:53:33;;;;;;;40.03;15.98;;;5.50;99.90;;;;;;4900954;29;20060;-76
2024/03/09 04:56:02;;;;;;;38.35;14.90;;;5.50;99.90;;;;;;4901444;29;20516;-76
2024/03/09 04:58:31;;;;;;;42.55;17.08;;;5.50;99.90;;;;;;4897141;29;20117;-77
2024/03/09 05:01:06;;;;;;;43.17;15.27;;;5.40;99.90;;;;;;4915031;29;20131;-77
2024/03/09 05:03:36;;;;;;;37.58;15.32;;;5.40;99.90;;;;;;4897358;29;20053;-77
2024/03/09 05:06:05;;;;;;;42.55;16.83;;;5.40;99.90;;;;;;4895763;29;20049;-78
2024/03/09 05:08:36;;;;;;;43.08;18.10;;;5.50;99.90;;;;;;4888217;29;20056;-77
2024/03/09 05:11:05;;;;;;;43.58;17.80;;;5.50;99.90;;;;;;4904467;29;20041;-77
2024/03/09 05:13:35;;;;;;;44.17;18.77;;;5.40;99.90;;;;;;4885804;29;20053;-78
2024/03/09 05:16:04;;;;;;;35.95;13.13;;;5.30;99.90;;;;;;4901963;29;20061;-76
2024/03/09 05:18:36;;;;;;;40.55;14.02;;;5.30;99.90;;;;;;4899063;29;20152;-77
2024/03/09 05:21:06;;;;;;;40.70;15.60;;;5.30;99.90;;;;;;4892306;29;20048;-77
2024/03/09 05:23:36;;;;;;;38.30;14.35;;;5.10;99.90;;;;;;4884796;29;20059;-77
2024/03/09 05:26:10;;;;;;;50.25;17.83;;;5.20;99.90;;;;;;4884783;29;20608;-76
2024/03/09 05:28:39;;;;;;;50.80;18.45;;;5.30;99.90;;;;;;4890850;29;20109;-77
2024/03/09 05:31:23;;;;;;;46.85;17.05;;;5.30;99.90;;;;;;4900048;29;20097;-78
2024/03/09 05:33:52;;;;;;;45.85;17.58;;;5.40;99.90;;;;;;4876313;29;20135;-77
2024/03/09 05:36:22;;;;;;;50.63;19.60;;;5.40;99.90;;;;;;4901970;29;20120;-77
2024/03/09 05:38:50;;;;;;;41.97;15.45;;;5.40;99.90;;;;;;4916293;29;20056;-77
2024/03/09 05:41:19;;;;;;;50.03;17.52;;;5.30;99.90;;;;;;4914259;29;20521;-77
2024/03/09 05:43:48;;;;;;;49.35;18.67;;;5.40;99.90;;;;;;4901396;29;20059;-77
2024/03/09 05:46:18;;;;;;;41.38;15.27;;;5.40;99.90;;;;;;4911737;29;20096;-77
2024/03/09 05:48:46;;;;;;;39.45;15.52;;;5.40;99.90;;;;;;4900968;29;20052;-77
2024/03/09 05:51:15;;;;;;;43.90;16.35;;;5.40;99.90;;;;;;4903089;29;20052;-77
2024/03/09 05:53:46;;;;;;;47.15;17.10;;;5.40;99.90;;;;;;4910924;29;20053;-78
2024/03/09 05:56:14;;;;;;;48.63;17.65;;;5.40;99.90;;;;;;4903406;29;20056;-77
2024/03/09 05:58:43;;;;;;;47.67;17.27;;;5.50;99.90;;;;;;4903939;29;20041;-77
2024/03/09 06:01:12;;;;;;;42.70;16.52;;;5.50;99.90;;;;;;4896312;29;20564;-77
2024/03/09 06:03:42;;;;;;;43.72;15.48;;;5.40;99.90;;;;;;4887907;29;20056;-77
2024/03/09 06:06:12;;;;;;;43.22;15.77;;;5.40;99.90;;;;;;4893354;29;20048;-76
2024/03/09 06:08:41;;;;;;;45.70;16.08;;;5.30;99.90;;;;;;4913386;29;20049;-77
2024/03/09 06:11:11;;;;;;;39.28;14.77;;;5.40;99.90;;;;;;4909124;29;20448;-77
2024/03/09 06:13:40;;;;;;;49.85;17.77;;;5.50;99.90;;;;;;4904086;29;20072;-77
2024/03/09 06:16:15;;;;;;;43.63;17.27;;;5.50;99.90;;;;;;4913966;29;20084;-78
2024/03/09 06:18:47;;;;;;;38.72;15.40;;;5.50;99.90;;;;;;4900975;29;20172;-78
2024/03/09 06:21:17;;;;;;;45.55;16.88;;;5.50;99.90;;;;;;4889595;29;20080;-78
2024/03/09 06:23:46;;;;;;;41.90;16.67;;;5.50;99.90;;;;;;4906963;29;20120;-79
2024/03/09 06:31:03;;;;;;;42.53;15.48;;;5.80;99.90;;;;;;4900969;29;20052;-78
2024/03/09 06:33:51;;;;;;;38.35;15.48;;;5.80;99.90;;;;;;4891659;29;20049;-77
2024/03/09 06:36:27;;;;;;;40.95;15.20;;;5.80;99.90;;;;;;4919858;29;20104;-79
2024/03/09 06:39:04;;;;;;;38.15;15.23;;;5.70;99.90;;;;;;4907459;29;20143;-78
2024/03/09 06:41:32;;;;;;;35.47;13.98;;;5.70;99.90;;;;;;4919004;29;20052;-76
2024/03/09 06:44:01;;;;;;;37.15;13.48;;;5.80;99.90;;;;;;4902372;29;20564;-77
2024/03/09 06:46:33;;;;;;;37.25;14.88;;;5.90;99.90;;;;;;4902876;29;20053;-78
2024/03/09 06:49:08;;;;;;;35.40;14.93;;;6.00;99.90;;;;;;4918906;29;20053;-78
2024/03/09 06:51:40;;;;;;;34.50;13.23;;;6.20;99.90;;;;;;4904805;29;20048;-78
2024/03/09 06:54:11;;;;;;;35.20;13.77;;;6.20;99.90;;;;;;4917662;29;20128;-76
2024/03/09 06:56:40;;;;;;;32.13;13.30;;;6.30;99.90;;;;;;4919790;29;20059;-79
2024/03/09 06:59:08;;;;;;;32.72;13.73;;;6.30;99.90;;;;;;4903374;29;20067;-77
2024/03/09 07:01:38;;;;;;;36.20;14.75;;;6.40;99.90;;;;;;4900303;29;20040;-77
2024/03/09 07:04:08;;;;;;;29.77;12.85;;;6.50;99.90;;;;;;4900271;29;20151;-77
2024/03/09 07:06:37;;;;;;;31.88;11.93;;;6.70;99.90;;;;;;4889849;29;20502;-77
2024/03/09 07:09:11;;;;;;;34.72;13.65;;;6.70;99.90;;;;;;4881386;29;20055;-79
2024/03/09 07:11:40;;;;;;;33.70;14.15;;;6.70;99.90;;;;;;4900274;29;20048;-76
2024/03/09 07:14:09;;;;;;;32.78;13.15;;;6.70;99.90;;;;;;4900609;29;20557;-78
2024/03/09 07:16:39;;;;;;;32.35;12.77;;;6.70;99.90;;;;;;4914805;29;20080;-77
2024/03/09 07:19:08;;;;;;;32.92;13.10;;;6.70;99.90;;;;;;4914710;29;20052;-78
2024/03/09 07:21:36;;;;;;;34.70;13.60;;;6.70;99.90;;;;;;4914777;29;20104;-78
2024/03/09 07:24:06;;;;;;;30.88;12.70;;;6.90;99.90;;;;;;4900381;29;20045;-78
2024/03/09 07:26:35;;;;;;;30.55;13.45;;;7.00;99.90;;;;;;4914530;29;20059;-76
2024/03/09 07:29:03;;;;;;;34.63;13.63;;;7.20;99.90;;;;;;4899975;29;20069;-80
2024/03/09 07:31:32;;;;;;;32.80;13.15;;;7.30;99.90;;;;;;4900007;29;20086;-77
2024/03/09 07:34:02;;;;;;;30.27;12.55;;;7.50;99.90;;;;;;4900089;29;20541;-82
2024/03/09 07:36:31;;;;;;;30.27;11.05;;;7.40;99.90;;;;;;4914318;29;20148;-83
2024/03/09 07:38:59;;;;;;;33.00;15.88;;;7.50;99.90;;;;;;4914299;29;20101;-78
2024/03/09 07:41:27;;;;;;;29.30;13.63;;;7.20;99.90;;;;;;4914244;29;20469;-77
2024/03/09 07:43:56;;;;;;;37.35;16.60;;;7.20;99.90;;;;;;4896954;29;20124;-78
2024/03/09 07:46:24;;;;;;;30.95;13.43;;;7.20;99.90;;;;;;4894579;29;20251;-76
2024/03/09 07:48:53;;;;;;;29.38;11.68;;;7.30;99.90;;;;;;4896067;29;20131;-78
2024/03/09 07:51:23;;;;;;;26.50;10.68;;;7.40;99.90;;;;;;4898642;29;20733;-83
2024/03/09 07:53:53;;;;;;;22.25;10.68;;;7.40;99.90;;;;;;4902442;29;20104;-78
2024/03/09 07:56:21;;;;;;;22.20;9.43;;;7.50;99.90;;;;;;4896772;29;20460;-82
2024/03/09 07:58:50;;;;;;;25.98;10.23;;;7.50;99.90;;;;;;4893347;29;20448;-78
2024/03/09 08:01:19;;;;;;;20.38;8.88;;;7.50;99.90;;;;;;4893837;29;20498;-85
2024/03/09 08:03:48;;;;;;;21.42;10.32;;;7.60;99.90;;;;;;4881922;29;20529;-79
2024/03/09 08:06:16;;;;;;;25.45;9.82;;;7.60;99.90;;;;;;4892216;29;20052;-83
2024/03/09 08:08:48;;;;;;;24.08;10.05;;;7.60;99.90;;;;;;4869824;29;20053;-83
2024/03/09 08:11:17;;;;;;;26.13;9.90;;;7.60;99.90;;;;;;4877566;29;20139;-85
2024/03/09 08:13:47;;;;;;;25.33;10.35;;;7.70;99.90;;;;;;4888435;29;20060;-77
2024/03/09 08:16:18;;;;;;;21.02;9.07;;;7.70;99.90;;;;;;4889171;29;20161;-85
2024/03/09 08:18:48;;;;;;;26.15;11.90;;;7.80;99.90;;;;;;4874094;29;20133;-79
2024/03/09 08:21:15;;;;;;;24.33;10.27;;;8.00;99.90;;;;;;4862330;29;20048;-78
2024/03/09 08:23:48;;;;;;;19.52;9.48;;;8.10;99.90;;;;;;4879862;29;20055;-78
2024/03/09 08:26:18;;;;;;;24.27;9.52;;;8.10;99.90;;;;;;4896645;29;20041;-84
2024/03/09 08:28:48;;;;;;;25.55;9.95;;;8.20;99.90;;;;;;4901074;29;20052;-77
2024/03/09 08:31:16;;;;;;;19.77;9.25;;;8.20;99.90;;;;;;4892171;29;20054;-76
2024/03/09 08:33:45;;;;;;;24.55;10.48;;;8.20;99.90;;;;;;4893554;29;20060;-78
2024/03/09 08:36:14;;;;;;;21.55;8.32;;;8.20;99.90;;;;;;4890083;29;20156;-81
2024/03/09 08:38:47;;;;;;;23.30;9.85;;;8.30;99.90;;;;;;4903208;29;20051;-77
2024/03/09 08:41:17;;;;;;;20.88;9.15;;;8.30;99.90;;;;;;4905465;29;20183;-85
2024/03/09 08:43:48;;;;;;;19.13;9.40;;;8.40;99.90;;;;;;4890106;29;20096;-80
2024/03/09 08:46:17;;;;;;;24.77;9.95;;;8.30;99.90;;;;;;4894451;29;20044;-85
2024/03/09 08:48:45;;;;;;;22.08;10.35;;;8.40;99.90;;;;;;4892014;29;20065;-85
2024/03/09 08:51:14;;;;;;;17.98;7.15;;;8.40;99.90;;;;;;4890311;29;20100;-87
2024/03/09 08:53:42;;;;;;;19.88;9.23;;;8.40;99.90;;;;;;4889304;29;20033;-86
2024/03/09 08:56:17;;;;;;;20.05;9.05;;;8.30;99.90;;;;;;4891457;29;20143;-86
2024/03/09 08:58:47;;;;;;;19.85;8.02;;;8.40;99.90;;;;;;4889903;29;20049;-87
2024/03/09 09:01:18;;;;;;;25.15;9.15;;;8.40;99.90;;;;;;4888403;29;20051;-84
2024/03/09 09:03:47;;;;;;;19.00;8.73;;;8.50;99.90;;;;;;4892717;29;20111;-82
2024/03/09 09:06:19;;;;;;;20.50;8.43;;;8.60;99.90;;;;;;4891005;29;20053;-86
2024/03/09 09:08:48;;;;;;;21.08;9.93;;;8.60;99.90;;;;;;4902913;29;20048;-84
2024/03/09 09:11:18;;;;;;;22.75;10.35;;;8.80;99.90;;;;;;4900077;29;20170;-87
2024/03/09 09:13:49;;;;;;;27.50;10.48;;;8.90;99.90;;;;;;4888009;29;20045;-85
2024/03/09 09:16:18;;;;;;;20.73;9.30;;;9.00;99.90;;;;;;4887675;29;20532;-80
2024/03/09 09:18:47;;;;;;;17.88;8.75;;;9.00;99.90;;;;;;4894569;29;20108;-87
2024/03/09 09:21:15;;;;;;;16.70;7.15;;;9.20;99.90;;;;;;4886820;29;20053;-90
2024/03/09 09:23:45;;;;;;;19.38;8.50;;;9.50;99.90;;;;;;4894500;29;20143;-88
2024/03/09 09:26:14;;;;;;;16.50;7.25;;;9.40;99.90;;;;;;4899407;29;20049;-80
2024/03/09 09:28:42;;;;;;;21.40;9.75;;;9.50;99.90;;;;;;4904286;29;20051;-82
2024/03/09 09:31:13;;;;;;;19.95;8.02;;;9.60;99.90;;;;;;4888279;29;20516;-86
2024/03/09 09:33:41;;;;;;;17.58;9.10;;;9.50;99.90;;;;;;4907789;29;20122;-86
2024/03/09 09:36:12;;;;;;;18.63;8.65;;;9.60;99.90;;;;;;4893197;29;20055;-86
2024/03/09 09:38:40;;;;;;;21.67;10.10;;;9.70;99.90;;;;;;4890765;29;20805;-85
2024/03/09 09:41:09;;;;;;;19.80;8.45;;;9.40;99.90;;;;;;4894525;29;20049;-86
2024/03/09 09:43:39;;;;;;;20.75;9.73;;;9.40;99.90;;;;;;4895398;29;20087;-77
2024/03/09 09:46:08;;;;;;;21.58;8.98;;;9.60;99.90;;;;;;4906464;29;20057;-86
2024/03/09 09:48:38;;;;;;;17.00;6.93;;;9.70;99.90;;;;;;4904891;29;20053;-85
2024/03/09 09:51:07;;;;;;;11.23;5.15;;;9.80;99.90;;;;;;4891040;29;20056;-82
2024/03/09 09:53:38;;;;;;;19.75;8.63;;;9.70;99.90;;;;;;4896755;29;20051;-79
2024/03/09 09:56:07;;;;;;;20.25;8.05;;;9.70;99.90;;;;;;4889929;29;20127;-77
2024/03/09 09:58:39;;;;;;;17.73;7.82;;;9.80;99.90;;;;;;4895902;29;20171;-78
2024/03/09 10:01:09;;;;;;;18.85;8.73;;;10.00;99.90;;;;;;4906118;29;20056;-77
2024/03/09 10:03:44;;;;;;;18.58;8.13;;;10.00;99.90;;;;;;4892146;29;20413;-83
2024/03/09 10:06:20;;;;;;;19.75;9.13;;;10.20;99.90;;;;;;4903370;29;20124;-77
2024/03/09 10:08:49;;;;;;;20.83;7.93;;;10.40;99.90;;;;;;4906625;29;20072;-77
2024/03/09 10:11:21;;;;;;;14.73;6.53;;;10.30;99.90;;;;;;4905660;29;20057;-75
2024/03/09 10:13:49;;;;;;;12.40;6.43;;;10.30;99.90;;;;;;4890944;29;20417;-84
2024/03/09 10:16:26;;;;;;;17.40;7.85;;;10.40;99.90;;;;;;4890861;29;20049;-84
2024/03/09 10:18:56;;;;;;;16.27;7.93;;;10.50;99.90;;;;;;4904654;29;20057;-77
2024/03/09 10:21:33;;;;;;;13.68;6.00;;;10.60;99.90;;;;;;4892638;29;20064;-74
2024/03/09 10:24:09;;;;;;;14.98;7.15;;;10.70;99.90;;;;;;4909093;29;20044;-84
2024/03/09 10:26:37;;;;;;;14.93;7.30;;;10.50;99.90;;;;;;4892497;29;20060;-87
2024/03/09 10:29:07;;;;;;;17.45;8.27;;;10.60;99.90;;;;;;4892694;29;20060;-85
2024/03/09 10:31:39;;;;;;;18.90;7.72;;;10.70;99.90;;;;;;4891125;29;20148;-77
2024/03/09 10:34:10;;;;;;;12.73;5.60;;;10.90;99.90;;;;;;4904300;29;20216;-86
2024/03/09 10:36:39;;;;;;;14.07;6.82;;;10.90;99.90;;;;;;4902835;29;20048;-85
2024/03/09 10:39:08;;;;;;;20.27;8.68;;;11.00;99.90;;;;;;4892202;29;20433;-77
2024/03/09 10:41:41;;;;;;;18.73;7.63;;;10.90;99.90;;;;;;4890936;29;20113;-80
2024/03/09 10:44:11;;;;;;;12.05;5.72;;;11.00;99.90;;;;;;4903423;29;20056;-86
2024/03/09 10:46:43;;;;;;;14.38;6.80;;;11.10;99.90;;;;;;4886628;29;20498;-87
2024/03/09 10:49:18;;;;;;;15.48;7.13;;;10.90;99.90;;;;;;4904126;29;20088;-77
2024/03/09 10:51:50;;;;;;;15.07;5.53;;;10.90;99.90;;;;;;4904207;29;20056;-85
2024/03/09 10:54:24;;;;;;;15.52;7.28;;;11.00;99.90;;;;;;4894943;29;20049;-79
2024/03/09 10:56:54;;;;;;;16.52;7.28;;;10.90;99.90;;;;;;4905550;29;20461;-79
2024/03/09 10:59:23;;;;;;;15.63;6.88;;;11.00;99.90;;;;;;4901182;29;20424;-84
2024/03/09 11:01:52;;;;;;;15.10;7.20;;;11.20;99.90;;;;;;4899604;29;20076;-76
2024/03/09 11:04:24;;;;;;;14.85;6.45;;;11.50;99.90;;;;;;4905417;29;20096;-84
2024/03/09 11:06:55;;;;;;;14.30;6.70;;;11.80;99.90;;;;;;4903426;29;20088;-77
2024/03/09 11:09:29;;;;;;;17.83;7.70;;;11.70;99.90;;;;;;4903669;29;20052;-82
2024/03/09 11:11:59;;;;;;;15.07;6.28;;;11.80;99.90;;;;;;4893664;29;20054;-83
2024/03/09 11:14:28;;;;;;;17.17;8.27;;;11.70;99.90;;;;;;4906971;29;20076;-80
2024/03/09 11:16:57;;;;;;;14.27;6.13;;;11.50;99.90;;;;;;4898297;29;20056;-78
2024/03/09 11:19:30;;;;;;;17.88;7.18;;;11.10;99.90;;;;;;4888786;29;20060;-87
2024/03/09 11:22:01;;;;;;;16.35;6.90;;;11.20;99.90;;;;;;4901864;29;20091;-77
2024/03/09 11:24:30;;;;;;;47.50;17.20;;;11.60;99.90;;;;;;4903850;29;20113;-81
2024/03/09 11:26:59;;;;;;;21.33;7.82;;;11.70;99.90;;;;;;4903978;29;20067;-82
2024/03/09 11:29:29;;;;;;;37.03;14.10;;;11.60;99.90;;;;;;4903184;29;20049;-78
2024/03/09 11:31:59;;;;;;;15.38;7.25;;;11.80;99.90;;;;;;4890124;29;20524;-75
2024/03/09 11:34:31;;;;;;;23.02;10.90;;;11.70;99.90;;;;;;4906033;29;20591;-79
2024/03/09 11:37:00;;;;;;;16.90;8.00;;;11.40;98.60;;;;;;4894605;29;20556;-75
2024/03/09 11:39:32;;;;;;;14.05;7.03;;;11.20;99.60;;;;;;4903546;29;20478;-75
2024/03/09 11:42:02;;;;;;;17.80;8.27;;;11.00;98.80;;;;;;4900871;29;20052;-76
2024/03/09 11:44:33;;;;;;;12.75;6.35;;;11.30;99.00;;;;;;4884555;29;20084;-81
2024/03/09 11:47:03;;;;;;;15.60;7.07;;;11.20;99.40;;;;;;4905453;29;20049;-85
2024/03/09 11:49:34;;;;;;;13.30;6.10;;;11.30;99.40;;;;;;4892160;29;20067;-78
2024/03/09 11:52:05;;;;;;;14.25;7.03;;;11.60;99.40;;;;;;4892107;29;20434;-80
2024/03/09 11:54:35;;;;;;;16.77;8.13;;;11.80;99.00;;;;;;4906575;29;20413;-80
2024/03/09 11:57:04;;;;;;;21.58;10.45;;;11.90;98.90;;;;;;4902302;29;20083;-76
2024/03/09 11:59:32;;;;;;;14.88;6.25;;;11.90;98.10;;;;;;4896647;29;20057;-75
2024/03/09 12:02:02;;;;;;;11.05;5.30;;;11.70;98.20;;;;;;4891831;29;20059;-77
2024/03/09 12:04:33;;;;;;;12.88;6.43;;;11.70;99.10;;;;;;4907655;29;20049;-78
2024/03/09 12:07:03;;;;;;;8.73;3.78;;;11.80;97.60;;;;;;4907268;29;20056;-82
2024/03/09 12:09:33;;;;;;;15.32;6.40;;;12.00;98.30;;;;;;4888802;29;20067;-74
2024/03/09 12:12:11;;;;;;;19.02;8.55;;;11.70;98.20;;;;;;4899430;29;20045;-74
2024/03/09 12:14:41;;;;;;;14.13;6.28;;;11.70;98.70;;;;;;4887037;29;20144;-77
2024/03/09 12:17:11;;;;;;;11.32;5.75;;;11.80;98.30;;;;;;4886734;29;20112;-85
2024/03/09 12:19:42;;;;;;;14.52;6.78;;;12.00;97.70;;;;;;4906664;29;20087;-86
2024/03/09 12:22:11;;;;;;;12.32;5.63;;;12.00;97.00;;;;;;4883509;29;20131;-77
2024/03/09 12:24:40;;;;;;;14.07;6.97;;;11.70;97.10;;;;;;4888880;29;20036;-83
2024/03/09 12:27:09;;;;;;;15.77;7.22;;;12.00;97.30;;;;;;4892169;29;20057;-81
2024/03/09 12:29:38;;;;;;;11.45;4.38;;;12.40;97.60;;;;;;4901685;29;20063;-77
2024/03/09 12:32:08;;;;;;;13.63;6.75;;;12.40;96.70;;;;;;4895371;29;20055;-74
2024/03/09 12:34:38;;;;;;;17.42;7.57;;;12.40;96.50;;;;;;4892897;29;20052;-78
2024/03/09 12:37:08;;;;;;;15.20;7.13;;;12.50;96.80;;;;;;4889287;29;20076;-78
2024/03/09 12:39:38;;;;;;;14.07;6.68;;;12.50;97.20;;;;;;4886306;29;20105;-76
2024/03/09 12:42:09;;;;;;;15.40;7.13;;;12.70;97.00;;;;;;4902092;29;20064;-77
2024/03/09 12:44:38;;;;;;;13.10;6.53;;;12.80;96.00;;;;;;4884028;29;20044;-78
2024/03/09 12:47:14;;;;;;;13.73;6.07;;;12.80;95.20;;;;;;4890572;29;20552;-78
2024/03/09 12:49:44;;;;;;;17.00;8.30;;;12.70;94.30;;;;;;4883306;29;20053;-77
2024/03/09 12:52:16;;;;;;;16.48;8.57;;;12.50;95.20;;;;;;4884670;29;20044;-77
2024/03/09 12:54:45;;;;;;;19.90;8.88;;;12.40;96.00;;;;;;4887071;29;20096;-77
2024/03/09 12:57:20;;;;;;;14.18;6.60;;;12.10;95.50;;;;;;4899405;29;20052;-80
2024/03/09 12:59:50;;;;;;;13.48;7.35;;;12.00;95.50;;;;;;4882707;29;20053;-81
2024/03/09 13:02:18;;;;;;;14.38;6.70;;;11.90;96.00;;;;;;4901637;29;20044;-79
2024/03/09 13:04:50;;;;;;;16.80;7.85;;;11.90;96.60;;;;;;4889150;29;20085;-82
2024/03/09 13:07:20;;;;;;;15.65;7.55;;;11.80;96.60;;;;;;4892258;29;20505;-78
2024/03/09 13:09:50;;;;;;;13.95;6.90;;;11.80;96.90;;;;;;4902979;29;20100;-78
2024/03/09 13:12:24;;;;;;;12.60;6.43;;;11.70;96.60;;;;;;4896384;29;20048;-77